createdAt,value
2022-08-28T00:00:45.201Z,25.79
2022-08-28T00:03:14.164Z,25.40
2022-08-28T00:05:43.129Z,25.42
2022-08-28T00:08:12.685Z,25.56
2022-08-28T00:10:41.567Z,25.88
2022-08-28T00:13:15.564Z,25.86
2022-08-28T00:15:42.902Z,26.02
2022-08-28T00:18:10.128Z,26.20
2022-08-28T00:20:38.881Z,25.67
2022-08-28T00:23:07.405Z,25.90
2022-08-28T00:25:35.872Z,25.82
2022-08-28T00:28:08.932Z,25.59
2022-08-28T00:30:43.953Z,25.88
2022-08-28T00:33:16.365Z,26.12
2022-08-28T00:35:44.344Z,25.99
2022-08-28T00:38:13.024Z,26.02
2022-08-28T00:40:44.537Z,25.93
2022-08-28T00:43:38.449Z,26.10
2022-08-28T00:46:12.902Z,25.91
2022-08-28T00:48:40.484Z,26.03
2022-08-28T00:51:27.576Z,25.49
2022-08-28T00:53:58.917Z,26.04
2022-08-28T00:56:29.318Z,25.78
2022-08-28T00:58:59.023Z,26.28
2022-08-28T01:01:26.332Z,25.72
2022-08-28T01:03:53.944Z,26.16
2022-08-28T01:06:21.451Z,25.92
2022-08-28T01:08:50.508Z,25.99
2022-08-28T01:11:19.583Z,26.08
2022-08-28T01:13:48.638Z,26.05
2022-08-28T01:16:18.697Z,26.25
2022-08-28T01:18:48.039Z,26.10
2022-08-28T01:21:36.708Z,26.17
2022-08-28T01:24:15.275Z,26.11
2022-08-28T01:26:43.362Z,26.21
2022-08-28T01:29:12.385Z,25.78
2022-08-28T01:31:40.919Z,26.04
2022-08-28T01:34:12.640Z,25.80
2022-08-28T01:39:26.882Z,25.61
2022-08-28T01:41:55.541Z,25.98
2022-08-28T01:44:26.848Z,26.06
2022-08-28T01:46:57.354Z,26.14
2022-08-28T01:49:29.427Z,25.92
2022-08-28T01:51:58.012Z,26.05
2022-08-28T01:54:26.909Z,26.06
2022-08-28T01:56:55.050Z,26.06
2022-08-28T01:59:22.787Z,25.88
2022-08-28T02:01:49.995Z,25.82
2022-08-28T02:04:17.354Z,25.64
2022-08-28T02:06:44.472Z,25.62
2022-08-28T02:09:14.764Z,25.77
2022-08-28T02:11:44.357Z,25.28
2022-08-28T02:14:17.089Z,25.30
2022-08-28T02:16:44.208Z,25.47
2022-08-28T02:19:12.173Z,25.57
2022-08-28T02:21:39.539Z,25.61
2022-08-28T02:24:07.110Z,25.42
2022-08-28T02:26:34.288Z,25.85
2022-08-28T02:29:01.747Z,25.90
2022-08-28T02:31:28.887Z,25.98
2022-08-28T02:33:56.013Z,25.93
2022-08-28T02:36:23.902Z,25.65
2022-08-28T02:38:57.421Z,25.53
2022-08-28T02:41:26.017Z,25.47
2022-08-28T02:43:53.341Z,25.73
2022-08-28T02:46:20.619Z,25.83
2022-08-28T02:48:47.694Z,25.72
2022-08-28T02:51:15.185Z,25.65
2022-08-28T02:53:43.105Z,25.48
2022-08-28T02:56:11.859Z,25.49
2022-08-28T02:58:39.748Z,25.17
2022-08-28T03:01:11.277Z,25.31
2022-08-28T03:03:40.872Z,25.20
2022-08-28T03:06:10.052Z,25.07
2022-08-28T03:08:37.553Z,24.62
2022-08-28T03:11:04.753Z,24.96
2022-08-28T03:13:32.079Z,24.65
2022-08-28T03:15:59.804Z,24.78
2022-08-28T03:18:33.238Z,24.41
2022-08-28T03:21:04.503Z,24.52
2022-08-28T03:23:32.069Z,24.33
2022-08-28T03:26:13.924Z,24.51
2022-08-28T03:28:48.654Z,24.48
2022-08-28T03:31:22.291Z,24.70
2022-08-28T03:33:50.106Z,24.75
2022-08-28T03:36:23.910Z,24.82
2022-08-28T03:38:57.009Z,24.49
2022-08-28T03:41:29.236Z,24.52
2022-08-28T03:43:59.263Z,24.20
2022-08-28T03:46:29.291Z,24.52
2022-08-28T03:48:56.455Z,24.73
2022-08-28T03:51:29.804Z,24.74
2022-08-28T03:54:02.142Z,24.76
2022-08-28T03:56:30.951Z,24.54
2022-08-28T03:59:01.911Z,24.31
2022-08-28T04:01:29.700Z,24.30
2022-08-28T04:03:57.615Z,24.44
2022-08-28T04:06:24.987Z,24.38
2022-08-28T04:08:52.036Z,23.92
2022-08-28T04:11:19.114Z,24.10
2022-08-28T04:13:46.469Z,24.21
2022-08-28T04:16:19.075Z,24.44
2022-08-28T04:18:48.796Z,24.39
2022-08-28T04:21:20.889Z,24.26
2022-08-28T04:23:48.237Z,24.61
2022-08-28T04:26:19.750Z,24.76
2022-08-28T04:28:48.532Z,24.89
2022-08-28T04:31:17.264Z,25.12
2022-08-28T04:33:44.539Z,24.92
2022-08-28T04:36:16.357Z,25.17
2022-08-28T04:38:44.301Z,25.32
2022-08-28T04:41:17.583Z,25.37
2022-08-28T04:43:45.136Z,25.35
2022-08-28T04:46:14.861Z,25.32
2022-08-28T04:48:43.144Z,25.71
2022-08-28T04:51:15.001Z,25.83
2022-08-28T04:53:42.974Z,25.96
2022-08-28T04:56:13.897Z,26.13
2022-08-28T04:58:43.714Z,26.49
2022-08-28T05:01:21.380Z,26.55
2022-08-28T05:03:52.897Z,26.21
2022-08-28T05:06:21.784Z,26.41
2022-08-28T05:08:48.991Z,26.44
2022-08-28T05:11:33.138Z,26.55
2022-08-28T05:14:03.700Z,26.84
2022-08-28T05:16:30.962Z,27.12
2022-08-28T05:19:02.686Z,27.39
2022-08-28T05:21:29.729Z,27.48
2022-08-28T05:23:57.912Z,27.66
2022-08-28T05:26:27.117Z,25.38
2022-08-28T05:28:56.956Z,25.11
2022-08-28T05:31:25.999Z,25.87
2022-08-28T05:33:54.006Z,25.74
2022-08-28T05:36:26.505Z,26.71
2022-08-28T05:39:00.108Z,26.05
2022-08-28T05:41:31.016Z,26.77
2022-08-28T05:44:05.812Z,27.58
2022-08-28T05:46:33.654Z,27.08
2022-08-28T05:49:00.739Z,27.58
2022-08-28T05:51:28.937Z,27.68
2022-08-28T05:53:57.771Z,27.65
2022-08-28T05:56:30.090Z,28.02
2022-08-28T05:59:02.201Z,28.30
2022-08-28T06:01:33.659Z,28.59
2022-08-28T06:04:08.096Z,28.97
2022-08-28T06:06:39.283Z,28.70
2022-08-28T06:09:16.918Z,28.90
2022-08-28T06:11:46.139Z,29.72
2022-08-28T06:14:17.510Z,30.61
2022-08-28T06:16:51.022Z,30.60
2022-08-28T06:19:20.547Z,31.43
2022-08-28T06:21:48.364Z,31.92
2022-08-28T06:24:15.403Z,31.97
2022-08-28T06:26:42.426Z,33.08
2022-08-28T06:29:13.733Z,33.45
2022-08-28T06:31:41.209Z,34.29
2022-08-28T06:34:09.367Z,34.40
2022-08-28T06:36:41.919Z,35.06
2022-08-28T06:39:12.763Z,35.27
2022-08-28T06:41:43.375Z,35.64
2022-08-28T06:44:19.556Z,36.22
2022-08-28T06:46:50.280Z,36.80
2022-08-28T06:49:17.821Z,36.03
2022-08-28T06:51:44.947Z,34.86
2022-08-28T06:54:12.107Z,34.01
2022-08-28T06:56:39.321Z,35.46
2022-08-28T06:59:06.430Z,36.44
2022-08-28T07:01:37.047Z,35.94
2022-08-28T07:04:09.628Z,37.45
2022-08-28T07:06:40.942Z,37.47
2022-08-28T07:09:13.384Z,38.15
2022-08-28T07:11:43.525Z,38.84
2022-08-28T07:14:10.629Z,39.00
2022-08-28T07:16:39.195Z,39.25
2022-08-28T07:19:12.061Z,38.13
2022-08-28T07:21:43.508Z,39.79
2022-08-28T07:24:15.470Z,39.68
2022-08-28T07:26:47.270Z,39.55
2022-08-28T07:29:14.444Z,39.80
2022-08-28T07:31:45.505Z,39.42
2022-08-28T07:34:14.174Z,40.26
2022-08-28T07:36:41.989Z,39.26
2022-08-28T07:39:14.429Z,39.20
2022-08-28T07:41:44.996Z,39.09
2022-08-28T07:44:33.507Z,40.35
2022-08-28T07:47:06.125Z,39.61
2022-08-28T07:49:36.422Z,39.05
2022-08-28T07:52:06.007Z,39.93
2022-08-28T07:54:35.974Z,40.22
2022-08-28T07:57:10.018Z,40.69
2022-08-28T07:59:38.163Z,42.06
2022-08-28T08:02:07.068Z,41.72
2022-08-28T08:04:34.743Z,41.57
2022-08-28T08:07:03.997Z,40.99
2022-08-28T08:09:31.278Z,41.30
2022-08-28T08:12:00.031Z,42.04
2022-08-28T08:14:27.359Z,41.51
2022-08-28T08:16:54.920Z,41.82
2022-08-28T08:19:22.301Z,42.23
2022-08-28T08:21:54.989Z,41.72
2022-08-28T08:24:30.314Z,41.55
2022-08-28T08:27:02.454Z,41.67
2022-08-28T08:29:35.629Z,42.06
2022-08-28T08:32:09.817Z,42.48
2022-08-28T08:34:42.223Z,41.87
2022-08-28T08:37:10.477Z,42.64
2022-08-28T08:39:40.293Z,42.50
2022-08-28T08:42:38.327Z,43.03
2022-08-28T08:45:11.260Z,43.24
2022-08-28T08:47:52.138Z,42.79
2022-08-28T08:50:28.362Z,42.94
2022-08-28T08:53:31.507Z,43.92
2022-08-28T08:56:00.160Z,43.82
2022-08-28T08:58:42.017Z,42.99
2022-08-28T09:01:17.885Z,43.48
2022-08-28T09:04:21.666Z,44.69
2022-08-28T09:07:14.136Z,45.26
2022-08-28T09:09:55.667Z,45.31
2022-08-28T09:12:31.111Z,45.53
2022-08-28T09:15:14.695Z,44.41
2022-08-28T09:17:53.574Z,45.32
2022-08-28T09:20:32.522Z,44.95
2022-08-28T09:23:02.164Z,44.81
2022-08-28T09:25:51.333Z,45.56
2022-08-28T09:28:54.032Z,46.00
2022-08-28T09:31:37.229Z,44.49
2022-08-28T09:34:24.970Z,44.42
2022-08-28T09:36:54.220Z,44.60
2022-08-28T09:39:41.104Z,45.16
2022-08-28T09:42:32.812Z,45.72
2022-08-28T09:45:14.132Z,46.37
2022-08-28T09:47:50.830Z,46.86
2022-08-28T09:50:42.433Z,46.46
2022-08-28T09:53:09.377Z,45.76
2022-08-28T09:56:07.749Z,45.16
2022-08-28T09:58:47.123Z,45.21
2022-08-28T10:01:44.795Z,44.63
2022-08-28T10:04:36.510Z,44.05
2022-08-28T10:07:25.823Z,43.64
2022-08-28T10:11:01.376Z,45.43
2022-08-28T10:13:47.736Z,45.10
2022-08-28T10:16:26.275Z,44.29
2022-08-28T10:19:16.148Z,43.38
2022-08-28T10:22:08.002Z,44.63
2022-08-28T10:25:26.822Z,44.44
2022-08-28T10:28:36.123Z,44.34
2022-08-28T10:31:36.263Z,42.76
2022-08-28T10:34:31.279Z,41.82
2022-08-28T10:37:24.002Z,42.13
2022-08-28T10:40:14.248Z,41.36
2022-08-28T10:42:54.938Z,41.81
2022-08-28T10:45:26.233Z,42.16
2022-08-28T10:48:07.081Z,41.98
2022-08-28T10:51:03.140Z,42.12
2022-08-28T10:53:42.656Z,43.30
2022-08-28T10:56:18.724Z,43.80
2022-08-28T10:58:57.487Z,43.65
2022-08-28T11:01:38.479Z,43.60
2022-08-28T11:04:20.768Z,42.92
2022-08-28T11:07:18.606Z,42.24
2022-08-28T11:09:49.016Z,42.02
2022-08-28T11:12:19.915Z,42.24
2022-08-28T11:14:54.032Z,43.17
2022-08-28T11:17:27.857Z,43.60
2022-08-28T11:20:18.011Z,43.32
2022-08-28T11:23:06.731Z,43.14
2022-08-28T11:25:55.390Z,42.48
2022-08-28T11:28:25.835Z,42.80
2022-08-28T11:30:58.941Z,42.99
2022-08-28T11:33:49.970Z,41.50
2022-08-28T11:36:19.908Z,41.21
2022-08-28T11:38:55.932Z,40.31
2022-08-28T11:41:38.591Z,40.09
2022-08-28T11:44:13.639Z,39.53
2022-08-28T11:46:53.109Z,39.18
2022-08-28T11:49:32.384Z,38.73
2022-08-28T11:52:36.925Z,38.07
2022-08-28T11:55:29.902Z,38.23
2022-08-28T11:58:23.957Z,37.68
2022-08-28T12:01:08.060Z,37.16
2022-08-28T12:04:03.762Z,36.99
2022-08-28T12:07:11.323Z,36.67
2022-08-28T12:09:50.154Z,36.87
2022-08-28T12:12:23.279Z,37.16
2022-08-28T12:15:01.963Z,37.45
2022-08-28T12:17:47.036Z,37.20
2022-08-28T12:20:51.489Z,37.22
2022-08-28T12:23:37.231Z,36.82
2022-08-28T12:26:41.862Z,36.98
2022-08-28T12:29:38.648Z,36.92
2022-08-28T12:32:45.470Z,37.08
2022-08-28T12:35:25.346Z,36.96
2022-08-28T12:37:54.986Z,36.97
2022-08-28T12:40:38.090Z,36.58
2022-08-28T12:43:15.568Z,36.40
2022-08-28T12:45:50.988Z,35.99
2022-08-28T12:48:31.743Z,35.68
2022-08-28T12:51:14.927Z,35.97
2022-08-28T12:53:46.698Z,35.45
2022-08-28T12:56:19.674Z,35.07
2022-08-28T12:58:50.961Z,35.53
2022-08-28T13:01:34.358Z,35.55
2022-08-28T13:04:25.194Z,35.52
2022-08-28T13:07:02.271Z,35.05
2022-08-28T13:09:29.860Z,35.32
2022-08-28T13:11:57.545Z,35.41
2022-08-28T13:14:43.338Z,35.30
2022-08-28T13:17:12.930Z,35.69
2022-08-28T13:19:44.162Z,35.63
2022-08-28T13:22:38.518Z,35.68
2022-08-28T13:25:06.818Z,35.84
2022-08-28T13:27:35.009Z,35.70
2022-08-28T13:30:20.139Z,35.89
2022-08-28T13:33:25.822Z,35.80
2022-08-28T13:35:55.091Z,35.74
2022-08-28T13:38:25.161Z,35.59
2022-08-28T13:41:00.264Z,35.58
2022-08-28T13:43:45.143Z,35.44
2022-08-28T13:46:12.672Z,36.01
2022-08-28T13:48:39.921Z,35.82
2022-08-28T13:51:12.035Z,35.58
2022-08-28T13:53:46.707Z,35.58
2022-08-28T13:56:14.139Z,35.42
2022-08-28T13:58:41.364Z,35.52
2022-08-28T14:01:10.168Z,35.52
2022-08-28T14:03:38.551Z,35.33
2022-08-28T14:06:18.487Z,35.37
2022-08-28T14:08:46.824Z,35.04
2022-08-28T14:11:15.816Z,34.97
2022-08-28T14:13:47.409Z,35.05
2022-08-28T14:16:25.253Z,34.98
2022-08-28T14:18:53.083Z,34.96
2022-08-28T14:21:21.703Z,34.92
2022-08-28T14:23:49.134Z,34.90
2022-08-28T14:26:16.399Z,34.75
2022-08-28T14:28:43.665Z,34.59
2022-08-28T14:31:14.809Z,34.63
2022-08-28T14:33:53.501Z,34.48
2022-08-28T14:36:27.752Z,34.59
2022-08-28T14:38:56.970Z,34.81
2022-08-28T14:41:26.356Z,34.93
2022-08-28T14:43:56.321Z,35.06
2022-08-28T14:46:34.342Z,34.77
2022-08-28T14:49:06.361Z,35.00
2022-08-28T14:51:37.146Z,35.21
2022-08-28T14:54:06.130Z,34.41
2022-08-28T14:56:35.708Z,34.72
2022-08-28T14:59:06.481Z,35.06
2022-08-28T15:01:40.529Z,35.39
2022-08-28T15:04:15.296Z,35.29
2022-08-28T15:06:43.730Z,35.31
2022-08-28T15:09:13.709Z,34.59
2022-08-28T15:11:44.200Z,34.89
2022-08-28T15:14:12.236Z,34.60
2022-08-28T15:16:45.285Z,34.23
2022-08-28T15:19:16.108Z,34.20
2022-08-28T15:21:48.799Z,34.39
2022-08-28T15:24:19.254Z,34.57
2022-08-28T15:26:46.937Z,34.52
2022-08-28T15:29:14.885Z,34.73
2022-08-28T15:31:49.036Z,34.20
2022-08-28T15:34:27.082Z,34.29
2022-08-28T15:37:00.311Z,34.26
2022-08-28T15:39:47.888Z,34.46
2022-08-28T15:42:15.518Z,34.26
2022-08-28T15:44:43.512Z,34.28
2022-08-28T15:47:14.921Z,34.18
2022-08-28T15:49:48.904Z,33.75
2022-08-28T15:52:19.070Z,33.85
2022-08-28T15:54:49.644Z,33.60
2022-08-28T15:57:17.786Z,33.44
2022-08-28T15:59:49.815Z,33.36
2022-08-28T16:02:23.908Z,33.34
2022-08-28T16:04:54.510Z,33.21
2022-08-28T16:07:27.654Z,33.42
2022-08-28T16:09:57.311Z,33.23
2022-08-28T16:12:25.548Z,33.00
2022-08-28T16:14:55.036Z,33.04
2022-08-28T16:17:24.614Z,32.62
2022-08-28T16:19:51.848Z,32.89
2022-08-28T16:22:21.574Z,32.69
2022-08-28T16:24:48.914Z,32.35
2022-08-28T16:27:16.172Z,31.56
2022-08-28T16:29:49.492Z,32.18
2022-08-28T16:32:20.206Z,32.15
2022-08-28T16:34:47.463Z,32.45
2022-08-28T16:37:19.465Z,32.30
2022-08-28T16:39:48.438Z,32.58
2022-08-28T16:42:18.231Z,32.48
2022-08-28T16:44:45.958Z,32.41
2022-08-28T16:47:13.597Z,32.49
2022-08-28T16:49:40.668Z,32.86
2022-08-28T16:52:07.837Z,33.00
2022-08-28T16:54:37.714Z,32.90
2022-08-28T16:57:15.241Z,32.90
2022-08-28T16:59:45.858Z,32.97
2022-08-28T17:02:13.695Z,32.93
2022-08-28T17:04:41.406Z,32.61
2022-08-28T17:07:10.543Z,32.39
2022-08-28T17:09:37.873Z,31.93
2022-08-28T17:12:05.140Z,31.93
2022-08-28T17:14:33.104Z,31.77
2022-08-28T17:17:00.383Z,31.55
2022-08-28T17:19:28.339Z,31.57
2022-08-28T17:22:15.862Z,31.44
2022-08-28T17:24:43.220Z,30.73
2022-08-28T17:27:10.415Z,30.92
2022-08-28T17:29:38.934Z,30.97
2022-08-28T17:32:08.085Z,30.76
2022-08-28T17:34:36.061Z,30.88
2022-08-28T17:37:04.816Z,31.01
2022-08-28T17:39:31.943Z,31.04
2022-08-28T17:41:59.175Z,31.13
2022-08-28T17:44:26.224Z,31.09
2022-08-28T17:46:53.454Z,31.30
2022-08-28T17:49:20.609Z,30.99
2022-08-28T17:51:47.731Z,30.95
2022-08-28T17:54:18.392Z,29.96
2022-08-28T17:56:46.481Z,30.03
2022-08-28T17:59:15.562Z,30.28
2022-08-28T18:01:45.402Z,30.30
2022-08-28T18:04:17.891Z,30.10
2022-08-28T18:06:47.258Z,30.31
2022-08-28T18:09:14.890Z,30.04
2022-08-28T18:11:44.753Z,30.21
2022-08-28T18:14:12.184Z,30.13
2022-08-28T18:16:41.848Z,30.20
2022-08-28T18:19:13.696Z,30.02
2022-08-28T18:21:42.998Z,29.19
2022-08-28T18:24:13.110Z,29.55
2022-08-28T18:26:44.041Z,29.72
2022-08-28T18:29:12.015Z,29.68
2022-08-28T18:31:39.744Z,29.24
2022-08-28T18:34:08.037Z,29.01
2022-08-28T18:36:36.658Z,29.29
2022-08-28T18:39:09.279Z,29.19
2022-08-28T18:41:43.727Z,29.22
2022-08-28T18:44:17.096Z,28.83
2022-08-28T18:46:45.702Z,28.71
2022-08-28T18:49:13.228Z,29.17
2022-08-28T18:51:43.686Z,29.37
2022-08-28T18:54:21.396Z,29.30
2022-08-28T18:56:50.536Z,29.40
2022-08-28T18:59:18.563Z,28.98
2022-08-28T19:01:48.757Z,28.81
2022-08-28T19:04:15.991Z,28.84
2022-08-28T19:06:44.285Z,28.79
2022-08-28T19:09:11.737Z,28.58
2022-08-28T19:11:48.293Z,28.55
2022-08-28T19:14:15.353Z,28.27
2022-08-28T19:16:42.512Z,28.34
2022-08-28T19:19:12.177Z,27.89
2022-08-28T19:21:39.403Z,27.53
2022-08-28T19:24:06.758Z,27.64
2022-08-28T19:26:34.015Z,27.83
2022-08-28T19:29:03.258Z,27.48
2022-08-28T19:31:34.926Z,27.60
2022-08-28T19:34:02.658Z,27.50
2022-08-28T19:36:30.339Z,27.49
2022-08-28T19:39:01.129Z,26.99
2022-08-28T19:41:29.698Z,27.60
2022-08-28T19:43:59.824Z,27.21
2022-08-28T19:46:27.196Z,27.16
2022-08-28T19:48:54.787Z,27.22
2022-08-28T19:51:24.176Z,27.40
2022-08-28T19:53:57.921Z,27.37
2022-08-28T19:56:37.446Z,27.58
2022-08-28T19:59:07.593Z,27.22
2022-08-28T20:01:46.408Z,27.32
2022-08-28T20:04:17.593Z,27.23
2022-08-28T20:06:46.939Z,27.09
2022-08-28T20:09:16.030Z,27.61
2022-08-28T20:11:46.970Z,27.85
2022-08-28T20:14:18.924Z,27.66
2022-08-28T20:16:48.781Z,27.59
2022-08-28T20:19:16.141Z,27.85
2022-08-28T20:21:50.007Z,27.39
2022-08-28T20:24:23.870Z,27.87
2022-08-28T20:26:55.144Z,27.27
2022-08-28T20:29:24.333Z,27.18
2022-08-28T20:31:54.285Z,27.84
2022-08-28T20:34:21.683Z,27.75
2022-08-28T20:36:49.456Z,27.59
2022-08-28T20:39:19.746Z,27.66
2022-08-28T20:41:47.840Z,26.94
2022-08-28T20:44:20.249Z,26.77
2022-08-28T20:46:54.642Z,27.28
2022-08-28T20:49:22.328Z,27.14
2022-08-28T20:51:53.072Z,27.41
2022-08-28T20:54:28.151Z,27.27
2022-08-28T20:56:57.973Z,27.40
2022-08-28T20:59:28.765Z,27.42
2022-08-28T21:02:05.452Z,27.82
2022-08-28T21:04:37.527Z,28.00
2022-08-28T21:07:06.356Z,27.85
2022-08-28T21:10:03.783Z,27.57
2022-08-28T21:12:20.926Z,27.25
2022-08-28T21:14:52.356Z,27.02
2022-08-28T21:17:29.966Z,27.57
2022-08-28T21:20:12.662Z,27.57
2022-08-28T21:22:43.306Z,27.79
2022-08-28T21:25:11.452Z,27.83
2022-08-28T21:27:39.175Z,27.85
2022-08-28T21:30:11.440Z,28.02
2022-08-28T21:32:39.277Z,27.77
2022-08-28T21:35:09.536Z,27.47
2022-08-28T21:37:41.158Z,28.01
2022-08-28T21:40:13.510Z,27.40
2022-08-28T21:42:41.693Z,27.80
2022-08-28T21:45:12.255Z,27.71
2022-08-28T21:47:41.709Z,27.54
2022-08-28T21:50:10.979Z,27.91
2022-08-28T21:52:38.322Z,28.07
2022-08-28T21:55:12.011Z,27.82
2022-08-28T21:57:39.566Z,27.37
2022-08-28T22:00:23.729Z,27.78
2022-08-28T22:02:53.968Z,27.97
2022-08-28T22:05:28.401Z,28.16
2022-08-28T22:07:58.707Z,28.13
2022-08-28T22:10:26.309Z,27.69
2022-08-28T22:12:56.579Z,28.00
2022-08-28T22:15:24.140Z,28.08
2022-08-28T22:17:52.120Z,27.85
2022-08-28T22:20:19.415Z,27.95
2022-08-28T22:23:05.488Z,28.07
2022-08-28T22:25:32.602Z,28.19
2022-08-28T22:28:09.526Z,27.91
2022-08-28T22:30:37.064Z,27.93
2022-08-28T22:33:04.265Z,27.51
2022-08-28T22:35:31.723Z,27.71
2022-08-28T22:37:58.928Z,27.81
2022-08-28T22:40:27.790Z,28.02
2022-08-28T22:43:00.068Z,28.15
2022-08-28T22:45:27.366Z,28.19
2022-08-28T22:47:56.816Z,28.11
2022-08-28T22:50:24.031Z,27.67
2022-08-28T22:52:51.362Z,27.31
2022-08-28T22:55:21.438Z,27.36
2022-08-28T22:57:51.556Z,27.45
2022-08-28T23:00:26.202Z,27.26
2022-08-28T23:02:55.391Z,27.48
2022-08-28T23:05:28.669Z,27.33
2022-08-28T23:07:56.357Z,27.19
2022-08-28T23:10:36.926Z,27.45
2022-08-28T23:13:14.307Z,27.33
2022-08-28T23:15:42.393Z,27.17
2022-08-28T23:18:13.109Z,27.62
2022-08-28T23:20:40.798Z,27.36
2022-08-28T23:23:08.322Z,27.45
2022-08-28T23:25:35.610Z,27.45
2022-08-28T23:28:06.565Z,27.15
2022-08-28T23:30:34.280Z,27.31
2022-08-28T23:33:01.698Z,27.33
2022-08-28T23:35:31.482Z,27.56
2022-08-28T23:37:59.134Z,27.28
2022-08-28T23:40:26.965Z,27.60
2022-08-28T23:42:58.155Z,27.19
2022-08-28T23:45:28.930Z,27.16
2022-08-28T23:47:59.361Z,27.30
2022-08-28T23:50:26.981Z,26.88
2022-08-28T23:52:54.228Z,27.19
2022-08-28T23:55:22.431Z,26.85
2022-08-28T23:57:54.108Z,26.90
